sensor_id;sensor_type;location;lat;lon;timestamp;P1;durP1;ratioP1;P2;durP2;ratioP2
3591;SDS011;1810;48.720;9.094;2023-07-31T00:00:17;108.30;;;103.70;;
3591;SDS011;1810;48.720;9.094;2023-07-31T00:02:46;109.65;;;105.25;;
3591;SDS011;1810;48.720;9.094;2023-07-31T00:05:15;106.57;;;102.32;;
3591;SDS011;1810;48.720;9.094;2023-07-31T00:07:45;79.97;;;76.63;;
3591;SDS011;1810;48.720;9.094;2023-07-31T00:10:13;78.45;;;75.22;;
3591;SDS011;1810;48.720;9.094;2023-07-31T00:12:42;88.55;;;84.85;;
3591;SDS011;1810;48.720;9.094;2023-07-31T00:15:12;70.68;;;67.63;;
3591;SDS011;1810;48.720;9.094;2023-07-31T00:17:41;87.65;;;84.10;;
3591;SDS011;1810;48.720;9.094;2023-07-31T00:20:10;82.75;;;79.25;;
3591;SDS011;1810;48.720;9.094;2023-07-31T00:22:39;86.03;;;82.40;;
3591;SDS011;1810;48.720;9.094;2023-07-31T00:25:09;49.05;;;46.90;;
3591;SDS011;1810;48.720;9.094;2023-07-31T00:27:37;54.53;;;52.13;;
3591;SDS011;1810;48.720;9.094;2023-07-31T00:30:10;53.88;;;51.53;;
3591;SDS011;1810;48.720;9.094;2023-07-31T00:32:39;54.13;;;51.47;;
3591;SDS011;1810;48.720;9.094;2023-07-31T00:35:07;46.30;;;44.00;;
3591;SDS011;1810;48.720;9.094;2023-07-31T00:37:36;41.75;;;39.80;;
3591;SDS011;1810;48.720;9.094;2023-07-31T00:40:05;39.85;;;37.97;;
3591;SDS011;1810;48.720;9.094;2023-07-31T00:42:36;36.60;;;34.85;;
3591;SDS011;1810;48.720;9.094;2023-07-31T00:45:05;37.60;;;35.53;;
3591;SDS011;1810;48.720;9.094;2023-07-31T00:47:33;43.85;;;41.50;;
3591;SDS011;1810;48.720;9.094;2023-07-31T00:50:02;30.42;;;28.92;;
3591;SDS011;1810;48.720;9.094;2023-07-31T00:52:31;38.85;;;37.00;;
3591;SDS011;1810;48.720;9.094;2023-07-31T00:55:00;41.15;;;39.20;;
3591;SDS011;1810;48.720;9.094;2023-07-31T00:57:28;30.58;;;28.80;;
3591;SDS011;1810;48.720;9.094;2023-07-31T00:59:58;29.80;;;28.30;;
3591;SDS011;1810;48.720;9.094;2023-07-31T01:02:27;31.75;;;30.25;;
3591;SDS011;1810;48.720;9.094;2023-07-31T01:04:56;29.45;;;28.05;;
3591;SDS011;1810;48.720;9.094;2023-07-31T01:07:26;23.98;;;22.52;;
3591;SDS011;1810;48.720;9.094;2023-07-31T01:10:01;35.97;;;34.20;;
3591;SDS011;1810;48.720;9.094;2023-07-31T01:12:32;36.58;;;34.80;;
3591;SDS011;1810;48.720;9.094;2023-07-31T01:15:03;26.38;;;25.02;;
3591;SDS011;1810;48.720;9.094;2023-07-31T01:17:32;27.67;;;26.27;;
3591;SDS011;1810;48.720;9.094;2023-07-31T01:20:02;21.27;;;20.02;;
3591;SDS011;1810;48.720;9.094;2023-07-31T01:22:40;30.92;;;29.35;;
3591;SDS011;1810;48.720;9.094;2023-07-31T01:25:26;42.22;;;40.13;;
3591;SDS011;1810;48.720;9.094;2023-07-31T01:28:07;37.17;;;35.40;;
3591;SDS011;1810;48.720;9.094;2023-07-31T01:30:40;40.38;;;38.50;;
3591;SDS011;1810;48.720;9.094;2023-07-31T01:33:10;36.10;;;34.25;;
3591;SDS011;1810;48.720;9.094;2023-07-31T01:35:39;32.53;;;30.92;;
3591;SDS011;1810;48.720;9.094;2023-07-31T01:38:10;27.88;;;26.42;;
3591;SDS011;1810;48.720;9.094;2023-07-31T01:40:40;33.22;;;31.70;;
3591;SDS011;1810;48.720;9.094;2023-07-31T01:43:10;34.13;;;32.50;;
3591;SDS011;1810;48.720;9.094;2023-07-31T01:45:39;41.17;;;39.33;;
3591;SDS011;1810;48.720;9.094;2023-07-31T01:48:07;57.78;;;55.33;;
3591;SDS011;1810;48.720;9.094;2023-07-31T01:50:36;58.22;;;55.47;;
3591;SDS011;1810;48.720;9.094;2023-07-31T01:53:04;62.38;;;59.72;;
3591;SDS011;1810;48.720;9.094;2023-07-31T01:55:33;79.70;;;76.25;;
3591;SDS011;1810;48.720;9.094;2023-07-31T01:58:01;71.57;;;68.35;;
3591;SDS011;1810;48.720;9.094;2023-07-31T02:00:31;77.80;;;74.03;;
3591;SDS011;1810;48.720;9.094;2023-07-31T02:03:00;63.55;;;60.90;;
3591;SDS011;1810;48.720;9.094;2023-07-31T02:05:28;42.10;;;40.17;;
3591;SDS011;1810;48.720;9.094;2023-07-31T02:07:57;45.47;;;43.42;;
3591;SDS011;1810;48.720;9.094;2023-07-31T02:10:25;33.80;;;32.05;;
3591;SDS011;1810;48.720;9.094;2023-07-31T02:12:54;36.30;;;34.63;;
3591;SDS011;1810;48.720;9.094;2023-07-31T02:15:24;49.05;;;46.80;;
3591;SDS011;1810;48.720;9.094;2023-07-31T02:17:53;82.95;;;79.50;;
3591;SDS011;1810;48.720;9.094;2023-07-31T02:20:24;92.35;;;88.47;;
3591;SDS011;1810;48.720;9.094;2023-07-31T02:22:52;89.53;;;85.85;;
3591;SDS011;1810;48.720;9.094;2023-07-31T02:25:21;93.93;;;90.03;;
3591;SDS011;1810;48.720;9.094;2023-07-31T02:27:49;102.57;;;98.32;;
3591;SDS011;1810;48.720;9.094;2023-07-31T02:30:18;93.63;;;89.78;;
3591;SDS011;1810;48.720;9.094;2023-07-31T02:32:46;85.60;;;82.07;;
3591;SDS011;1810;48.720;9.094;2023-07-31T02:35:16;100.85;;;96.68;;
3591;SDS011;1810;48.720;9.094;2023-07-31T02:37:45;99.82;;;95.72;;
3591;SDS011;1810;48.720;9.094;2023-07-31T02:40:13;74.05;;;70.90;;
3591;SDS011;1810;48.720;9.094;2023-07-31T02:42:42;68.63;;;65.53;;
3591;SDS011;1810;48.720;9.094;2023-07-31T02:45:10;68.65;;;65.70;;
3591;SDS011;1810;48.720;9.094;2023-07-31T02:47:39;48.20;;;45.95;;
3591;SDS011;1810;48.720;9.094;2023-07-31T02:50:08;55.75;;;53.20;;
3591;SDS011;1810;48.720;9.094;2023-07-31T02:52:38;52.90;;;50.58;;
3591;SDS011;1810;48.720;9.094;2023-07-31T02:55:07;85.40;;;81.70;;
3591;SDS011;1810;48.720;9.094;2023-07-31T02:57:35;97.95;;;93.70;;
3591;SDS011;1810;48.720;9.094;2023-07-31T03:00:04;100.97;;;96.75;;
3591;SDS011;1810;48.720;9.094;2023-07-31T03:02:33;68.75;;;65.53;;
3591;SDS011;1810;48.720;9.094;2023-07-31T03:05:02;66.63;;;63.78;;
3591;SDS011;1810;48.720;9.094;2023-07-31T03:07:31;66.93;;;63.92;;
3591;SDS011;1810;48.720;9.094;2023-07-31T03:10:01;96.32;;;92.28;;
3591;SDS011;1810;48.720;9.094;2023-07-31T03:12:29;78.25;;;74.90;;
3591;SDS011;1810;48.720;9.094;2023-07-31T03:14:58;101.78;;;97.53;;
3591;SDS011;1810;48.720;9.094;2023-07-31T03:17:26;115.25;;;110.57;;
3591;SDS011;1810;48.720;9.094;2023-07-31T03:19:55;127.32;;;122.07;;
3591;SDS011;1810;48.720;9.094;2023-07-31T03:22:24;203.82;;;194.48;;
3591;SDS011;1810;48.720;9.094;2023-07-31T03:24:52;145.68;;;139.73;;
3591;SDS011;1810;48.720;9.094;2023-07-31T03:27:22;153.07;;;146.98;;
3591;SDS011;1810;48.720;9.094;2023-07-31T03:29:51;162.38;;;155.77;;
3591;SDS011;1810;48.720;9.094;2023-07-31T03:32:19;153.68;;;147.50;;
3591;SDS011;1810;48.720;9.094;2023-07-31T03:34:49;168.50;;;161.73;;
3591;SDS011;1810;48.720;9.094;2023-07-31T03:37:17;193.88;;;186.02;;
3591;SDS011;1810;48.720;9.094;2023-07-31T03:39:46;202.05;;;193.75;;
3591;SDS011;1810;48.720;9.094;2023-07-31T03:42:14;205.75;;;197.35;;
3591;SDS011;1810;48.720;9.094;2023-07-31T03:44:44;198.55;;;190.52;;
3591;SDS011;1810;48.720;9.094;2023-07-31T03:47:13;157.73;;;151.02;;
3591;SDS011;1810;48.720;9.094;2023-07-31T03:49:41;179.75;;;172.32;;
3591;SDS011;1810;48.720;9.094;2023-07-31T03:52:10;198.30;;;190.30;;
3591;SDS011;1810;48.720;9.094;2023-07-31T03:54:38;221.07;;;212.13;;
3591;SDS011;1810;48.720;9.094;2023-07-31T03:57:06;173.90;;;166.85;;
3591;SDS011;1810;48.720;9.094;2023-07-31T03:59:35;248.15;;;238.07;;
3591;SDS011;1810;48.720;9.094;2023-07-31T04:02:06;303.83;;;290.38;;
3591;SDS011;1810;48.720;9.094;2023-07-31T04:04:34;331.05;;;316.88;;
3591;SDS011;1810;48.720;9.094;2023-07-31T04:07:03;356.80;;;341.23;;
3591;SDS011;1810;48.720;9.094;2023-07-31T04:09:31;349.42;;;334.55;;
3591;SDS011;1810;48.720;9.094;2023-07-31T04:12:00;353.98;;;338.77;;
3591;SDS011;1810;48.720;9.094;2023-07-31T04:14:28;329.75;;;315.73;;
3591;SDS011;1810;48.720;9.094;2023-07-31T04:16:57;316.98;;;303.63;;
3591;SDS011;1810;48.720;9.094;2023-07-31T04:19:26;368.02;;;351.92;;
3591;SDS011;1810;48.720;9.094;2023-07-31T04:21:55;345.33;;;330.40;;
3591;SDS011;1810;48.720;9.094;2023-07-31T04:24:23;396.00;;;378.08;;
3591;SDS011;1810;48.720;9.094;2023-07-31T04:26:52;362.42;;;346.67;;
3591;SDS011;1810;48.720;9.094;2023-07-31T04:29:20;506.38;;;479.13;;
3591;SDS011;1810;48.720;9.094;2023-07-31T04:31:50;482.67;;;459.45;;
3591;SDS011;1810;48.720;9.094;2023-07-31T04:34:18;468.25;;;446.10;;
3591;SDS011;1810;48.720;9.094;2023-07-31T04:36:48;504.40;;;479.40;;
3591;SDS011;1810;48.720;9.094;2023-07-31T04:39:17;595.22;;;563.83;;
3591;SDS011;1810;48.720;9.094;2023-07-31T04:41:45;618.72;;;584.55;;
3591;SDS011;1810;48.720;9.094;2023-07-31T04:44:14;579.67;;;549.15;;
3591;SDS011;1810;48.720;9.094;2023-07-31T04:46:42;552.03;;;523.78;;
3591;SDS011;1810;48.720;9.094;2023-07-31T04:49:11;543.45;;;515.95;;
3591;SDS011;1810;48.720;9.094;2023-07-31T04:51:40;537.15;;;509.85;;
3591;SDS011;1810;48.720;9.094;2023-07-31T04:54:09;582.05;;;551.65;;
3591;SDS011;1810;48.720;9.094;2023-07-31T04:56:41;544.53;;;516.97;;
3591;SDS011;1810;48.720;9.094;2023-07-31T04:59:09;550.80;;;522.75;;
3591;SDS011;1810;48.720;9.094;2023-07-31T05:01:38;509.35;;;484.17;;
3591;SDS011;1810;48.720;9.094;2023-07-31T05:04:06;558.92;;;530.17;;
3591;SDS011;1810;48.720;9.094;2023-07-31T05:06:35;572.53;;;543.00;;
3591;SDS011;1810;48.720;9.094;2023-07-31T05:09:04;515.67;;;490.25;;
3591;SDS011;1810;48.720;9.094;2023-07-31T05:11:34;596.05;;;564.55;;
3591;SDS011;1810;48.720;9.094;2023-07-31T05:14:02;599.38;;;566.72;;
3591;SDS011;1810;48.720;9.094;2023-07-31T05:16:31;544.10;;;516.60;;
3591;SDS011;1810;48.720;9.094;2023-07-31T05:18:59;691.53;;;650.45;;
3591;SDS011;1810;48.720;9.094;2023-07-31T05:21:28;531.75;;;505.38;;
3591;SDS011;1810;48.720;9.094;2023-07-31T05:23:56;538.75;;;511.55;;
3591;SDS011;1810;48.720;9.094;2023-07-31T05:26:25;637.60;;;601.78;;
3591;SDS011;1810;48.720;9.094;2023-07-31T05:28:54;590.88;;;559.45;;
3591;SDS011;1810;48.720;9.094;2023-07-31T05:31:24;620.45;;;586.58;;
3591;SDS011;1810;48.720;9.094;2023-07-31T05:33:53;654.72;;;617.58;;
3591;SDS011;1810;48.720;9.094;2023-07-31T05:36:21;699.30;;;657.97;;
3591;SDS011;1810;48.720;9.094;2023-07-31T05:38:50;635.60;;;600.70;;
3591;SDS011;1810;48.720;9.094;2023-07-31T05:41:18;611.55;;;578.10;;
3591;SDS011;1810;48.720;9.094;2023-07-31T05:43:47;608.45;;;575.20;;
3591;SDS011;1810;48.720;9.094;2023-07-31T05:46:17;584.55;;;553.25;;
3591;SDS011;1810;48.720;9.094;2023-07-31T05:48:45;613.85;;;580.60;;
3591;SDS011;1810;48.720;9.094;2023-07-31T05:51:14;598.47;;;566.13;;
3591;SDS011;1810;48.720;9.094;2023-07-31T05:53:42;578.72;;;548.10;;
3591;SDS011;1810;48.720;9.094;2023-07-31T05:56:11;608.65;;;575.60;;
3591;SDS011;1810;48.720;9.094;2023-07-31T05:58:40;678.72;;;638.97;;
3591;SDS011;1810;48.720;9.094;2023-07-31T06:01:09;635.22;;;599.28;;
3591;SDS011;1810;48.720;9.094;2023-07-31T06:03:39;626.22;;;591.63;;
3591;SDS011;1810;48.720;9.094;2023-07-31T06:06:08;636.25;;;600.90;;
3591;SDS011;1810;48.720;9.094;2023-07-31T06:08:36;624.55;;;590.05;;
3591;SDS011;1810;48.720;9.094;2023-07-31T06:11:06;612.17;;;578.72;;
3591;SDS011;1810;48.720;9.094;2023-07-31T06:13:35;611.47;;;578.95;;
3591;SDS011;1810;48.720;9.094;2023-07-31T06:16:07;621.10;;;587.20;;
3591;SDS011;1810;48.720;9.094;2023-07-31T06:18:40;570.55;;;540.83;;
3591;SDS011;1810;48.720;9.094;2023-07-31T06:21:09;626.20;;;591.55;;
3591;SDS011;1810;48.720;9.094;2023-07-31T06:23:38;587.60;;;556.53;;
3591;SDS011;1810;48.720;9.094;2023-07-31T06:26:07;593.75;;;562.20;;
3591;SDS011;1810;48.720;9.094;2023-07-31T06:28:36;573.58;;;543.35;;
3591;SDS011;1810;48.720;9.094;2023-07-31T06:31:04;589.58;;;558.25;;
3591;SDS011;1810;48.720;9.094;2023-07-31T06:33:34;586.30;;;554.67;;
3591;SDS011;1810;48.720;9.094;2023-07-31T06:36:04;598.33;;;566.10;;
3591;SDS011;1810;48.720;9.094;2023-07-31T06:38:33;575.15;;;544.63;;
3591;SDS011;1810;48.720;9.094;2023-07-31T06:41:02;629.90;;;594.88;;
3591;SDS011;1810;48.720;9.094;2023-07-31T06:43:30;577.85;;;547.70;;
3591;SDS011;1810;48.720;9.094;2023-07-31T06:46:00;581.80;;;550.67;;
3591;SDS011;1810;48.720;9.094;2023-07-31T06:48:33;581.65;;;550.80;;
3591;SDS011;1810;48.720;9.094;2023-07-31T06:51:04;562.70;;;533.20;;
3591;SDS011;1810;48.720;9.094;2023-07-31T06:53:33;595.55;;;563.38;;
3591;SDS011;1810;48.720;9.094;2023-07-31T06:56:02;601.42;;;568.63;;
3591;SDS011;1810;48.720;9.094;2023-07-31T06:58:31;614.47;;;581.00;;
3591;SDS011;1810;48.720;9.094;2023-07-31T07:00:59;582.35;;;551.45;;
3591;SDS011;1810;48.720;9.094;2023-07-31T07:03:28;698.00;;;655.53;;
3591;SDS011;1810;48.720;9.094;2023-07-31T07:05:57;579.95;;;549.47;;
3591;SDS011;1810;48.720;9.094;2023-07-31T07:08:27;583.00;;;552.22;;
3591;SDS011;1810;48.720;9.094;2023-07-31T07:10:55;571.13;;;541.55;;
3591;SDS011;1810;48.720;9.094;2023-07-31T07:13:24;567.13;;;537.75;;
3591;SDS011;1810;48.720;9.094;2023-07-31T07:15:52;597.97;;;565.30;;
3591;SDS011;1810;48.720;9.094;2023-07-31T07:18:21;640.60;;;603.63;;
3591;SDS011;1810;48.720;9.094;2023-07-31T07:20:51;562.45;;;532.97;;
3591;SDS011;1810;48.720;9.094;2023-07-31T07:23:20;558.13;;;529.03;;
3591;SDS011;1810;48.720;9.094;2023-07-31T07:25:50;578.28;;;548.00;;
3591;SDS011;1810;48.720;9.094;2023-07-31T07:28:19;628.03;;;593.35;;
3591;SDS011;1810;48.720;9.094;2023-07-31T07:30:50;584.83;;;553.40;;
3591;SDS011;1810;48.720;9.094;2023-07-31T07:33:20;600.70;;;567.92;;
3591;SDS011;1810;48.720;9.094;2023-07-31T07:35:49;561.72;;;532.58;;
3591;SDS011;1810;48.720;9.094;2023-07-31T07:38:20;584.63;;;553.47;;
3591;SDS011;1810;48.720;9.094;2023-07-31T07:40:52;569.88;;;539.80;;
3591;SDS011;1810;48.720;9.094;2023-07-31T07:43:29;578.13;;;547.35;;
3591;SDS011;1810;48.720;9.094;2023-07-31T07:45:58;641.40;;;604.92;;
3591;SDS011;1810;48.720;9.094;2023-07-31T07:48:28;680.70;;;639.83;;
3591;SDS011;1810;48.720;9.094;2023-07-31T07:50:59;590.08;;;558.72;;
3591;SDS011;1810;48.720;9.094;2023-07-31T07:53:28;573.05;;;542.88;;
3591;SDS011;1810;48.720;9.094;2023-07-31T07:55:58;573.63;;;543.17;;
3591;SDS011;1810;48.720;9.094;2023-07-31T07:58:27;571.35;;;541.58;;
3591;SDS011;1810;48.720;9.094;2023-07-31T08:00:55;555.20;;;526.45;;
3591;SDS011;1810;48.720;9.094;2023-07-31T08:03:24;583.15;;;552.15;;
3591;SDS011;1810;48.720;9.094;2023-07-31T08:05:57;549.90;;;521.17;;
3591;SDS011;1810;48.720;9.094;2023-07-31T08:08:26;570.55;;;540.42;;
3591;SDS011;1810;48.720;9.094;2023-07-31T08:10:55;571.85;;;541.95;;
3591;SDS011;1810;48.720;9.094;2023-07-31T08:13:25;562.78;;;533.33;;
3591;SDS011;1810;48.720;9.094;2023-07-31T08:15:53;587.13;;;555.88;;
3591;SDS011;1810;48.720;9.094;2023-07-31T08:18:22;577.47;;;547.40;;
3591;SDS011;1810;48.720;9.094;2023-07-31T08:20:51;654.10;;;616.38;;
3591;SDS011;1810;48.720;9.094;2023-07-31T08:23:35;622.00;;;587.63;;
3591;SDS011;1810;48.720;9.094;2023-07-31T08:26:04;598.78;;;566.45;;
3591;SDS011;1810;48.720;9.094;2023-07-31T08:28:34;609.53;;;576.50;;
3591;SDS011;1810;48.720;9.094;2023-07-31T08:31:03;579.33;;;548.72;;
3591;SDS011;1810;48.720;9.094;2023-07-31T08:33:32;642.00;;;605.97;;
3591;SDS011;1810;48.720;9.094;2023-07-31T08:36:03;615.88;;;582.30;;
3591;SDS011;1810;48.720;9.094;2023-07-31T08:38:39;587.15;;;555.70;;
3591;SDS011;1810;48.720;9.094;2023-07-31T08:41:10;699.65;;;654.83;;
3591;SDS011;1810;48.720;9.094;2023-07-31T08:43:50;604.15;;;571.17;;
3591;SDS011;1810;48.720;9.094;2023-07-31T08:46:31;587.05;;;555.45;;
3591;SDS011;1810;48.720;9.094;2023-07-31T08:49:10;573.85;;;543.42;;
3591;SDS011;1810;48.720;9.094;2023-07-31T08:51:39;599.75;;;567.08;;
3591;SDS011;1810;48.720;9.094;2023-07-31T08:54:09;582.47;;;551.25;;
3591;SDS011;1810;48.720;9.094;2023-07-31T08:56:38;586.72;;;554.83;;
3591;SDS011;1810;48.720;9.094;2023-07-31T08:59:10;589.33;;;557.45;;
3591;SDS011;1810;48.720;9.094;2023-07-31T09:01:41;634.42;;;598.72;;
3591;SDS011;1810;48.720;9.094;2023-07-31T09:04:14;582.33;;;551.42;;
3591;SDS011;1810;48.720;9.094;2023-07-31T09:06:46;569.78;;;539.55;;
3591;SDS011;1810;48.720;9.094;2023-07-31T09:09:17;605.58;;;572.58;;
3591;SDS011;1810;48.720;9.094;2023-07-31T09:11:53;565.80;;;536.13;;
3591;SDS011;1810;48.720;9.094;2023-07-31T09:14:36;556.22;;;527.15;;
3591;SDS011;1810;48.720;9.094;2023-07-31T09:17:07;545.47;;;517.33;;
3591;SDS011;1810;48.720;9.094;2023-07-31T09:19:36;556.95;;;527.88;;
3591;SDS011;1810;48.720;9.094;2023-07-31T09:22:05;560.35;;;531.30;;
3591;SDS011;1810;48.720;9.094;2023-07-31T09:24:34;661.20;;;622.63;;
3591;SDS011;1810;48.720;9.094;2023-07-31T09:27:05;550.45;;;522.28;;
3591;SDS011;1810;48.720;9.094;2023-07-31T09:29:34;556.08;;;527.33;;
3591;SDS011;1810;48.720;9.094;2023-07-31T09:34:44;568.92;;;538.63;;
3591;SDS011;1810;48.720;9.094;2023-07-31T09:37:12;554.45;;;525.75;;
3591;SDS011;1810;48.720;9.094;2023-07-31T09:39:47;559.60;;;530.72;;
3591;SDS011;1810;48.720;9.094;2023-07-31T09:42:24;546.97;;;518.88;;
3591;SDS011;1810;48.720;9.094;2023-07-31T09:44:56;567.80;;;537.63;;
3591;SDS011;1810;48.720;9.094;2023-07-31T09:48:01;611.85;;;577.70;;
3591;SDS011;1810;48.720;9.094;2023-07-31T09:50:30;577.13;;;546.97;;
3591;SDS011;1810;48.720;9.094;2023-07-31T09:52:59;573.25;;;542.90;;
3591;SDS011;1810;48.720;9.094;2023-07-31T09:55:28;564.10;;;534.40;;
3591;SDS011;1810;48.720;9.094;2023-07-31T09:57:58;579.22;;;548.40;;
3591;SDS011;1810;48.720;9.094;2023-07-31T10:00:29;579.00;;;548.20;;
3591;SDS011;1810;48.720;9.094;2023-07-31T10:02:58;664.53;;;624.35;;
3591;SDS011;1810;48.720;9.094;2023-07-31T10:05:30;558.00;;;528.88;;
3591;SDS011;1810;48.720;9.094;2023-07-31T10:08:01;563.97;;;534.55;;
3591;SDS011;1810;48.720;9.094;2023-07-31T10:10:30;552.85;;;524.40;;
3591;SDS011;1810;48.720;9.094;2023-07-31T10:12:59;569.17;;;538.97;;
3591;SDS011;1810;48.720;9.094;2023-07-31T10:15:29;553.08;;;524.40;;
3591;SDS011;1810;48.720;9.094;2023-07-31T10:17:59;663.63;;;624.78;;
3591;SDS011;1810;48.720;9.094;2023-07-31T10:20:28;571.72;;;541.38;;
3591;SDS011;1810;48.720;9.094;2023-07-31T10:22:57;569.80;;;539.88;;
3591;SDS011;1810;48.720;9.094;2023-07-31T10:25:26;584.45;;;552.78;;
3591;SDS011;1810;48.720;9.094;2023-07-31T10:27:55;575.70;;;545.17;;
3591;SDS011;1810;48.720;9.094;2023-07-31T10:30:26;580.90;;;549.75;;
3591;SDS011;1810;48.720;9.094;2023-07-31T10:32:58;563.78;;;534.45;;
3591;SDS011;1810;48.720;9.094;2023-07-31T10:35:28;591.78;;;559.97;;
3591;SDS011;1810;48.720;9.094;2023-07-31T10:38:03;587.55;;;556.03;;
3591;SDS011;1810;48.720;9.094;2023-07-31T10:40:38;553.60;;;524.45;;
3591;SDS011;1810;48.720;9.094;2023-07-31T10:43:07;574.78;;;543.45;;
3591;SDS011;1810;48.720;9.094;2023-07-31T10:45:39;608.10;;;574.50;;
3591;SDS011;1810;48.720;9.094;2023-07-31T10:48:12;617.05;;;583.03;;
3591;SDS011;1810;48.720;9.094;2023-07-31T10:50:46;654.03;;;616.03;;
3591;SDS011;1810;48.720;9.094;2023-07-31T10:53:22;587.83;;;556.15;;
3591;SDS011;1810;48.720;9.094;2023-07-31T10:55:52;616.97;;;582.42;;
3591;SDS011;1810;48.720;9.094;2023-07-31T10:58:22;590.90;;;559.08;;
3591;SDS011;1810;48.720;9.094;2023-07-31T11:00:55;582.53;;;551.38;;
3591;SDS011;1810;48.720;9.094;2023-07-31T11:03:25;587.25;;;555.53;;
3591;SDS011;1810;48.720;9.094;2023-07-31T11:05:59;612.13;;;578.45;;
3591;SDS011;1810;48.720;9.094;2023-07-31T11:08:30;579.58;;;548.55;;
3591;SDS011;1810;48.720;9.094;2023-07-31T11:11:06;583.08;;;552.05;;
3591;SDS011;1810;48.720;9.094;2023-07-31T11:13:39;620.47;;;585.67;;
3591;SDS011;1810;48.720;9.094;2023-07-31T11:16:11;598.30;;;566.08;;
3591;SDS011;1810;48.720;9.094;2023-07-31T11:18:40;599.40;;;567.05;;
3591;SDS011;1810;48.720;9.094;2023-07-31T11:21:11;592.10;;;560.20;;
3591;SDS011;1810;48.720;9.094;2023-07-31T11:23:40;570.45;;;540.13;;
3591;SDS011;1810;48.720;9.094;2023-07-31T11:26:09;617.03;;;582.88;;
3591;SDS011;1810;48.720;9.094;2023-07-31T11:28:39;574.72;;;544.10;;
3591;SDS011;1810;48.720;9.094;2023-07-31T11:31:10;591.20;;;559.05;;
3591;SDS011;1810;48.720;9.094;2023-07-31T11:33:39;599.35;;;566.97;;
3591;SDS011;1810;48.720;9.094;2023-07-31T11:36:13;567.00;;;537.25;;
3591;SDS011;1810;48.720;9.094;2023-07-31T11:38:42;563.03;;;533.72;;
3591;SDS011;1810;48.720;9.094;2023-07-31T11:41:13;567.45;;;538.13;;
3591;SDS011;1810;48.720;9.094;2023-07-31T11:43:42;557.33;;;528.20;;
3591;SDS011;1810;48.720;9.094;2023-07-31T11:46:12;663.63;;;625.67;;
3591;SDS011;1810;48.720;9.094;2023-07-31T11:48:42;561.47;;;531.92;;
3591;SDS011;1810;48.720;9.094;2023-07-31T11:51:11;573.63;;;543.10;;
3591;SDS011;1810;48.720;9.094;2023-07-31T11:53:41;628.47;;;592.53;;
3591;SDS011;1810;48.720;9.094;2023-07-31T11:56:13;559.60;;;530.30;;
3591;SDS011;1810;48.720;9.094;2023-07-31T11:58:44;557.40;;;528.42;;
3591;SDS011;1810;48.720;9.094;2023-07-31T12:01:15;533.95;;;506.63;;
3591;SDS011;1810;48.720;9.094;2023-07-31T12:03:45;540.00;;;512.10;;
3591;SDS011;1810;48.720;9.094;2023-07-31T12:06:14;562.78;;;533.33;;
3591;SDS011;1810;48.720;9.094;2023-07-31T12:08:43;579.67;;;548.72;;
3591;SDS011;1810;48.720;9.094;2023-07-31T12:11:11;552.90;;;523.95;;
3591;SDS011;1810;48.720;9.094;2023-07-31T12:13:41;580.20;;;549.33;;
3591;SDS011;1810;48.720;9.094;2023-07-31T12:16:10;575.97;;;545.83;;
3591;SDS011;1810;48.720;9.094;2023-07-31T12:18:40;566.38;;;536.85;;
3591;SDS011;1810;48.720;9.094;2023-07-31T12:21:09;564.05;;;534.55;;
3591;SDS011;1810;48.720;9.094;2023-07-31T12:23:39;559.17;;;530.38;;
3591;SDS011;1810;48.720;9.094;2023-07-31T12:26:09;531.22;;;504.25;;
3591;SDS011;1810;48.720;9.094;2023-07-31T12:28:40;556.13;;;527.20;;
3591;SDS011;1810;48.720;9.094;2023-07-31T12:31:10;587.58;;;556.35;;
3591;SDS011;1810;48.720;9.094;2023-07-31T12:33:41;562.08;;;532.63;;
3591;SDS011;1810;48.720;9.094;2023-07-31T12:36:11;558.47;;;529.65;;
3591;SDS011;1810;48.720;9.094;2023-07-31T12:38:40;564.30;;;534.67;;
3591;SDS011;1810;48.720;9.094;2023-07-31T12:41:09;569.53;;;539.60;;
3591;SDS011;1810;48.720;9.094;2023-07-31T12:43:38;646.10;;;608.72;;
3591;SDS011;1810;48.720;9.094;2023-07-31T12:46:09;582.30;;;551.78;;
3591;SDS011;1810;48.720;9.094;2023-07-31T12:48:41;569.00;;;539.13;;
3591;SDS011;1810;48.720;9.094;2023-07-31T12:51:09;582.10;;;551.10;;
3591;SDS011;1810;48.720;9.094;2023-07-31T12:53:38;574.35;;;544.10;;
3591;SDS011;1810;48.720;9.094;2023-07-31T12:56:07;578.08;;;547.72;;
3591;SDS011;1810;48.720;9.094;2023-07-31T12:58:35;558.95;;;529.80;;
3591;SDS011;1810;48.720;9.094;2023-07-31T13:01:04;551.70;;;523.35;;
3591;SDS011;1810;48.720;9.094;2023-07-31T13:03:33;605.33;;;572.65;;
3591;SDS011;1810;48.720;9.094;2023-07-31T13:06:03;583.55;;;551.90;;
3591;SDS011;1810;48.720;9.094;2023-07-31T13:08:32;626.92;;;592.25;;
3591;SDS011;1810;48.720;9.094;2023-07-31T13:11:01;569.53;;;539.60;;
3591;SDS011;1810;48.720;9.094;2023-07-31T13:13:29;576.90;;;546.05;;
3591;SDS011;1810;48.720;9.094;2023-07-31T13:15:58;581.10;;;549.65;;
3591;SDS011;1810;48.720;9.094;2023-07-31T13:18:28;684.83;;;643.00;;
3591;SDS011;1810;48.720;9.094;2023-07-31T13:20:57;662.53;;;623.63;;
3591;SDS011;1810;48.720;9.094;2023-07-31T13:23:27;671.63;;;631.45;;
3591;SDS011;1810;48.720;9.094;2023-07-31T13:25:55;574.17;;;543.55;;
3591;SDS011;1810;48.720;9.094;2023-07-31T13:28:24;564.47;;;534.70;;
3591;SDS011;1810;48.720;9.094;2023-07-31T13:30:53;634.00;;;598.00;;
3591;SDS011;1810;48.720;9.094;2023-07-31T13:33:22;581.63;;;551.05;;
3591;SDS011;1810;48.720;9.094;2023-07-31T13:36:03;566.08;;;536.05;;
3591;SDS011;1810;48.720;9.094;2023-07-31T13:38:33;564.50;;;534.85;;
3591;SDS011;1810;48.720;9.094;2023-07-31T13:41:02;569.92;;;540.00;;
3591;SDS011;1810;48.720;9.094;2023-07-31T13:43:31;567.70;;;537.97;;
3591;SDS011;1810;48.720;9.094;2023-07-31T13:46:00;569.22;;;539.22;;
3591;SDS011;1810;48.720;9.094;2023-07-31T13:48:34;577.45;;;546.65;;
3591;SDS011;1810;48.720;9.094;2023-07-31T13:51:02;596.58;;;563.78;;
3591;SDS011;1810;48.720;9.094;2023-07-31T13:53:31;698.08;;;655.58;;
3591;SDS011;1810;48.720;9.094;2023-07-31T13:56:01;548.95;;;520.78;;
3591;SDS011;1810;48.720;9.094;2023-07-31T13:58:30;552.30;;;523.58;;
3591;SDS011;1810;48.720;9.094;2023-07-31T14:00:59;656.25;;;617.35;;
3591;SDS011;1810;48.720;9.094;2023-07-31T14:03:28;560.78;;;531.13;;
3591;SDS011;1810;48.720;9.094;2023-07-31T14:05:57;553.97;;;525.10;;
3591;SDS011;1810;48.720;9.094;2023-07-31T14:08:25;583.65;;;552.15;;
3591;SDS011;1810;48.720;9.094;2023-07-31T14:10:55;680.78;;;640.03;;
3591;SDS011;1810;48.720;9.094;2023-07-31T14:13:24;634.30;;;597.75;;
3591;SDS011;1810;48.720;9.094;2023-07-31T14:15:53;551.78;;;523.45;;
3591;SDS011;1810;48.720;9.094;2023-07-31T14:18:22;614.72;;;580.45;;
3591;SDS011;1810;48.720;9.094;2023-07-31T14:20:51;552.88;;;524.28;;
3591;SDS011;1810;48.720;9.094;2023-07-31T14:23:19;547.17;;;519.03;;
3591;SDS011;1810;48.720;9.094;2023-07-31T14:25:48;568.97;;;539.17;;
3591;SDS011;1810;48.720;9.094;2023-07-31T14:28:18;577.67;;;546.75;;
3591;SDS011;1810;48.720;9.094;2023-07-31T14:30:47;598.30;;;566.38;;
3591;SDS011;1810;48.720;9.094;2023-07-31T14:33:15;562.38;;;532.80;;
3591;SDS011;1810;48.720;9.094;2023-07-31T14:35:44;568.13;;;538.38;;
3591;SDS011;1810;48.720;9.094;2023-07-31T14:38:12;580.63;;;549.72;;
3591;SDS011;1810;48.720;9.094;2023-07-31T14:40:41;563.97;;;534.38;;
3591;SDS011;1810;48.720;9.094;2023-07-31T14:43:10;592.88;;;561.10;;